sensor_id;sensor_type;location;lat;lon;timestamp;pressure;altitude;pressure_sealevel;temperature;humidity
23417;BME280;11881;42.432;25.632;2023-11-21T00:00:00;99042.84;;;8.52;97.19
23417;BME280;11881;42.432;25.632;2023-11-21T00:02:26;99043.75;;;8.62;96.62
23417;BME280;11881;42.432;25.632;2023-11-21T00:04:52;99051.84;;;8.40;98.14
23417;BME280;11881;42.432;25.632;2023-11-21T00:07:17;99066.72;;;8.31;100.00
23417;BME280;11881;42.432;25.632;2023-11-21T00:09:43;99068.75;;;8.39;99.65
23417;BME280;11881;42.432;25.632;2023-11-21T00:12:08;99060.03;;;8.48;98.32
23417;BME280;11881;42.432;25.632;2023-11-21T00:14:37;99060.41;;;8.43;99.25
23417;BME280;11881;42.432;25.632;2023-11-21T00:17:03;99057.47;;;8.46;98.75
23417;BME280;11881;42.432;25.632;2023-11-21T00:19:29;99067.09;;;8.38;99.05
23417;BME280;11881;42.432;25.632;2023-11-21T00:21:54;99069.94;;;8.35;100.00
23417;BME280;11881;42.432;25.632;2023-11-21T00:24:20;99065.44;;;8.25;100.00
23417;BME280;11881;42.432;25.632;2023-11-21T00:26:45;99067.28;;;8.35;99.79
23417;BME280;11881;42.432;25.632;2023-11-21T00:29:13;99060.84;;;8.27;100.00
23417;BME280;11881;42.432;25.632;2023-11-21T00:31:39;99063.47;;;8.27;100.00
23417;BME280;11881;42.432;25.632;2023-11-21T00:34:04;99065.41;;;8.37;100.00
23417;BME280;11881;42.432;25.632;2023-11-21T00:36:33;99066.88;;;8.30;99.78
23417;BME280;11881;42.432;25.632;2023-11-21T00:38:58;99058.78;;;8.31;99.73
23417;BME280;11881;42.432;25.632;2023-11-21T00:41:24;99059.19;;;8.47;99.54
23417;BME280;11881;42.432;25.632;2023-11-21T00:43:53;99061.78;;;8.38;99.11
23417;BME280;11881;42.432;25.632;2023-11-21T00:46:18;99064.78;;;8.12;100.00
23417;BME280;11881;42.432;25.632;2023-11-21T00:48:44;99066.66;;;8.21;100.00
23417;BME280;11881;42.432;25.632;2023-11-21T00:51:09;99072.69;;;8.23;100.00
23417;BME280;11881;42.432;25.632;2023-11-21T00:53:35;99068.38;;;8.11;100.00
23417;BME280;11881;42.432;25.632;2023-11-21T00:56:00;99065.34;;;8.16;100.00
23417;BME280;11881;42.432;25.632;2023-11-21T00:58:26;99067.88;;;7.96;100.00
23417;BME280;11881;42.432;25.632;2023-11-21T01:00:52;99066.47;;;8.13;100.00
23417;BME280;11881;42.432;25.632;2023-11-21T01:03:18;99065.28;;;8.27;100.00
23417;BME280;11881;42.432;25.632;2023-11-21T01:05:44;99058.44;;;8.24;100.00
23417;BME280;11881;42.432;25.632;2023-11-21T01:08:10;99066.16;;;8.07;100.00
23417;BME280;11881;42.432;25.632;2023-11-21T01:10:36;99059.91;;;7.96;100.00
23417;BME280;11881;42.432;25.632;2023-11-21T01:13:02;99066.84;;;7.77;100.00
23417;BME280;11881;42.432;25.632;2023-11-21T01:15:31;99074.88;;;7.65;100.00
23417;BME280;11881;42.432;25.632;2023-11-21T01:17:56;99069.03;;;7.83;100.00
23417;BME280;11881;42.432;25.632;2023-11-21T01:20:22;99060.22;;;7.82;100.00
23417;BME280;11881;42.432;25.632;2023-11-21T01:22:47;99060.66;;;7.87;100.00
23417;BME280;11881;42.432;25.632;2023-11-21T01:25:14;99053.72;;;7.75;100.00
23417;BME280;11881;42.432;25.632;2023-11-21T01:27:41;99054.28;;;7.90;100.00
23417;BME280;11881;42.432;25.632;2023-11-21T01:30:07;99055.06;;;7.69;100.00
23417;BME280;11881;42.432;25.632;2023-11-21T01:32:35;99046.75;;;7.74;100.00
23417;BME280;11881;42.432;25.632;2023-11-21T01:35:01;99046.44;;;7.88;100.00
23417;BME280;11881;42.432;25.632;2023-11-21T01:37:26;99055.16;;;7.79;100.00
23417;BME280;11881;42.432;25.632;2023-11-21T01:39:54;99047.25;;;7.68;100.00
23417;BME280;11881;42.432;25.632;2023-11-21T01:42:20;99050.41;;;7.62;100.00
23417;BME280;11881;42.432;25.632;2023-11-21T01:44:46;99055.84;;;7.60;100.00
23417;BME280;11881;42.432;25.632;2023-11-21T01:47:11;99049.72;;;7.60;100.00
23417;BME280;11881;42.432;25.632;2023-11-21T01:49:38;99045.72;;;7.65;100.00
23417;BME280;11881;42.432;25.632;2023-11-21T01:52:04;99048.94;;;7.69;100.00
23417;BME280;11881;42.432;25.632;2023-11-21T01:54:30;99058.47;;;7.71;100.00
23417;BME280;11881;42.432;25.632;2023-11-21T01:56:58;99053.91;;;7.62;100.00
23417;BME280;11881;42.432;25.632;2023-11-21T01:59:33;99058.38;;;7.62;100.00
23417;BME280;11881;42.432;25.632;2023-11-21T02:01:59;99044.00;;;7.64;100.00
23417;BME280;11881;42.432;25.632;2023-11-21T02:04:25;99045.94;;;7.62;100.00
23417;BME280;11881;42.432;25.632;2023-11-21T02:06:50;99051.66;;;7.46;100.00
23417;BME280;11881;42.432;25.632;2023-11-21T02:09:16;99049.25;;;7.55;100.00
23417;BME280;11881;42.432;25.632;2023-11-21T02:11:43;99053.19;;;7.60;100.00
23417;BME280;11881;42.432;25.632;2023-11-21T02:14:09;99044.97;;;7.31;100.00
23417;BME280;11881;42.432;25.632;2023-11-21T02:16:35;99041.38;;;7.53;100.00
23417;BME280;11881;42.432;25.632;2023-11-21T02:19:04;99041.19;;;7.45;100.00
23417;BME280;11881;42.432;25.632;2023-11-21T02:21:34;99039.88;;;7.39;100.00
23417;BME280;11881;42.432;25.632;2023-11-21T02:24:01;99054.34;;;7.35;100.00
23417;BME280;11881;42.432;25.632;2023-11-21T02:26:26;99049.28;;;7.43;100.00
23417;BME280;11881;42.432;25.632;2023-11-21T02:28:52;99048.13;;;7.25;100.00
23417;BME280;11881;42.432;25.632;2023-11-21T02:31:18;99051.63;;;7.03;100.00
23417;BME280;11881;42.432;25.632;2023-11-21T02:33:44;99046.91;;;7.18;100.00
23417;BME280;11881;42.432;25.632;2023-11-21T02:36:09;99050.16;;;7.10;100.00
23417;BME280;11881;42.432;25.632;2023-11-21T02:38:35;99051.25;;;7.19;100.00
23417;BME280;11881;42.432;25.632;2023-11-21T02:41:00;99047.00;;;7.28;100.00
23417;BME280;11881;42.432;25.632;2023-11-21T02:43:26;99045.34;;;7.27;100.00
23417;BME280;11881;42.432;25.632;2023-11-21T02:45:51;99030.09;;;7.08;100.00
23417;BME280;11881;42.432;25.632;2023-11-21T02:48:17;99033.94;;;7.04;100.00
23417;BME280;11881;42.432;25.632;2023-11-21T02:50:42;99032.47;;;7.00;100.00
23417;BME280;11881;42.432;25.632;2023-11-21T02:53:09;99031.66;;;6.99;100.00
23417;BME280;11881;42.432;25.632;2023-11-21T02:55:36;99036.72;;;7.02;100.00
23417;BME280;11881;42.432;25.632;2023-11-21T02:58:02;99030.59;;;6.90;100.00
23417;BME280;11881;42.432;25.632;2023-11-21T03:00:29;99035.41;;;6.85;100.00
23417;BME280;11881;42.432;25.632;2023-11-21T03:02:55;99033.19;;;7.13;100.00
23417;BME280;11881;42.432;25.632;2023-11-21T03:05:21;99028.97;;;7.22;100.00
23417;BME280;11881;42.432;25.632;2023-11-21T03:07:47;99025.81;;;7.28;100.00
23417;BME280;11881;42.432;25.632;2023-11-21T03:10:12;99031.13;;;7.16;100.00
23417;BME280;11881;42.432;25.632;2023-11-21T03:12:38;99036.44;;;7.16;100.00
23417;BME280;11881;42.432;25.632;2023-11-21T03:15:07;99034.97;;;7.24;100.00
23417;BME280;11881;42.432;25.632;2023-11-21T03:17:33;99046.03;;;7.29;100.00
23417;BME280;11881;42.432;25.632;2023-11-21T03:19:59;99042.84;;;7.14;100.00
23417;BME280;11881;42.432;25.632;2023-11-21T03:22:25;99052.53;;;7.25;100.00
23417;BME280;11881;42.432;25.632;2023-11-21T03:24:51;99047.16;;;7.26;100.00
23417;BME280;11881;42.432;25.632;2023-11-21T03:27:18;99040.16;;;7.25;100.00
23417;BME280;11881;42.432;25.632;2023-11-21T03:29:43;99045.22;;;7.06;100.00
23417;BME280;11881;42.432;25.632;2023-11-21T03:32:10;99049.81;;;7.04;100.00
23417;BME280;11881;42.432;25.632;2023-11-21T03:34:35;99045.97;;;7.08;100.00
23417;BME280;11881;42.432;25.632;2023-11-21T03:37:17;99050.16;;;7.10;100.00
23417;BME280;11881;42.432;25.632;2023-11-21T03:39:43;99044.25;;;7.07;100.00
23417;BME280;11881;42.432;25.632;2023-11-21T03:42:08;99052.34;;;6.94;100.00
23417;BME280;11881;42.432;25.632;2023-11-21T03:44:34;99049.47;;;6.97;100.00
23417;BME280;11881;42.432;25.632;2023-11-21T03:46:59;99050.78;;;7.03;100.00
23417;BME280;11881;42.432;25.632;2023-11-21T03:49:25;99041.53;;;6.86;100.00
23417;BME280;11881;42.432;25.632;2023-11-21T03:51:50;99049.34;;;6.87;100.00
23417;BME280;11881;42.432;25.632;2023-11-21T03:54:15;99055.25;;;7.02;100.00
23417;BME280;11881;42.432;25.632;2023-11-21T03:56:41;99059.31;;;6.95;100.00
23417;BME280;11881;42.432;25.632;2023-11-21T03:59:06;99056.19;;;7.01;100.00
23417;BME280;11881;42.432;25.632;2023-11-21T04:01:32;99052.84;;;6.99;100.00
23417;BME280;11881;42.432;25.632;2023-11-21T04:03:58;99058.84;;;7.01;100.00
23417;BME280;11881;42.432;25.632;2023-11-21T04:06:23;99058.25;;;6.98;100.00
23417;BME280;11881;42.432;25.632;2023-11-21T04:08:49;99054.16;;;6.93;100.00
23417;BME280;11881;42.432;25.632;2023-11-21T04:11:14;99054.16;;;6.82;100.00
23417;BME280;11881;42.432;25.632;2023-11-21T04:13:41;99063.19;;;6.91;100.00
23417;BME280;11881;42.432;25.632;2023-11-21T04:16:08;99063.56;;;6.86;100.00
23417;BME280;11881;42.432;25.632;2023-11-21T04:18:36;99071.00;;;6.70;100.00
23417;BME280;11881;42.432;25.632;2023-11-21T04:21:01;99064.75;;;6.82;100.00
23417;BME280;11881;42.432;25.632;2023-11-21T04:23:28;99065.84;;;6.80;100.00
23417;BME280;11881;42.432;25.632;2023-11-21T04:25:54;99064.53;;;6.74;100.00
23417;BME280;11881;42.432;25.632;2023-11-21T04:28:22;99060.56;;;6.91;100.00
23417;BME280;11881;42.432;25.632;2023-11-21T04:30:48;99064.88;;;7.03;100.00
23417;BME280;11881;42.432;25.632;2023-11-21T04:33:13;99066.56;;;7.04;100.00
23417;BME280;11881;42.432;25.632;2023-11-21T04:35:39;99059.31;;;7.06;100.00
23417;BME280;11881;42.432;25.632;2023-11-21T04:38:04;99058.84;;;7.01;100.00
23417;BME280;11881;42.432;25.632;2023-11-21T04:40:30;99062.09;;;6.93;100.00
23417;BME280;11881;42.432;25.632;2023-11-21T04:42:55;99056.94;;;6.92;100.00
23417;BME280;11881;42.432;25.632;2023-11-21T04:45:22;99060.66;;;6.89;100.00
23417;BME280;11881;42.432;25.632;2023-11-21T04:47:48;99064.03;;;7.14;100.00
23417;BME280;11881;42.432;25.632;2023-11-21T04:50:13;99067.50;;;7.26;100.00
23417;BME280;11881;42.432;25.632;2023-11-21T04:52:39;99063.88;;;7.27;100.00
23417;BME280;11881;42.432;25.632;2023-11-21T04:55:05;99068.22;;;7.28;100.00
23417;BME280;11881;42.432;25.632;2023-11-21T04:57:32;99068.69;;;7.22;100.00
23417;BME280;11881;42.432;25.632;2023-11-21T04:59:57;99082.41;;;7.38;100.00
23417;BME280;11881;42.432;25.632;2023-11-21T05:02:23;99071.53;;;7.41;100.00
23417;BME280;11881;42.432;25.632;2023-11-21T05:04:48;99069.88;;;7.29;100.00
23417;BME280;11881;42.432;25.632;2023-11-21T05:07:14;99077.59;;;7.32;100.00
23417;BME280;11881;42.432;25.632;2023-11-21T05:09:43;99077.59;;;7.43;100.00
23417;BME280;11881;42.432;25.632;2023-11-21T05:12:12;99084.09;;;7.39;100.00
23417;BME280;11881;42.432;25.632;2023-11-21T05:14:38;99101.31;;;7.44;100.00
23417;BME280;11881;42.432;25.632;2023-11-21T05:17:03;99103.97;;;7.22;100.00
23417;BME280;11881;42.432;25.632;2023-11-21T05:19:33;99101.47;;;7.20;100.00
23417;BME280;11881;42.432;25.632;2023-11-21T05:22:00;99113.72;;;7.33;100.00
23417;BME280;11881;42.432;25.632;2023-11-21T05:24:26;99124.22;;;7.23;100.00
23417;BME280;11881;42.432;25.632;2023-11-21T05:26:51;99109.97;;;7.35;100.00
23417;BME280;11881;42.432;25.632;2023-11-21T05:29:16;99110.81;;;7.36;100.00
23417;BME280;11881;42.432;25.632;2023-11-21T05:31:42;99112.91;;;7.32;100.00
23417;BME280;11881;42.432;25.632;2023-11-21T05:34:07;99115.69;;;7.31;100.00
23417;BME280;11881;42.432;25.632;2023-11-21T05:36:33;99118.69;;;7.37;100.00
23417;BME280;11881;42.432;25.632;2023-11-21T05:38:58;99119.03;;;7.33;100.00
23417;BME280;11881;42.432;25.632;2023-11-21T05:41:24;99116.88;;;7.27;100.00
23417;BME280;11881;42.432;25.632;2023-11-21T05:43:51;99115.69;;;7.31;100.00
23417;BME280;11881;42.432;25.632;2023-11-21T05:46:16;99109.13;;;7.46;100.00
23417;BME280;11881;42.432;25.632;2023-11-21T05:48:41;99107.56;;;7.55;100.00
23417;BME280;11881;42.432;25.632;2023-11-21T05:51:07;99109.25;;;7.44;100.00
23417;BME280;11881;42.432;25.632;2023-11-21T05:53:33;99109.59;;;7.51;100.00
23417;BME280;11881;42.432;25.632;2023-11-21T05:55:59;99108.75;;;7.62;100.00
23417;BME280;11881;42.432;25.632;2023-11-21T05:58:25;99110.38;;;7.74;100.00
23417;BME280;11881;42.432;25.632;2023-11-21T06:00:50;99115.19;;;7.80;100.00
23417;BME280;11881;42.432;25.632;2023-11-21T06:03:16;99119.03;;;7.87;100.00
23417;BME280;11881;42.432;25.632;2023-11-21T06:05:42;99113.72;;;7.87;100.00
23417;BME280;11881;42.432;25.632;2023-11-21T06:08:08;99129.41;;;7.90;100.00
23417;BME280;11881;42.432;25.632;2023-11-21T06:10:34;99122.47;;;7.99;100.00
23417;BME280;11881;42.432;25.632;2023-11-21T06:12:59;99123.44;;;7.98;100.00
23417;BME280;11881;42.432;25.632;2023-11-21T06:15:25;99125.88;;;8.01;100.00
23417;BME280;11881;42.432;25.632;2023-11-21T06:17:51;99133.09;;;7.99;100.00
23417;BME280;11881;42.432;25.632;2023-11-21T06:20:20;99127.53;;;8.02;100.00
23417;BME280;11881;42.432;25.632;2023-11-21T06:22:48;99121.59;;;8.10;100.00
23417;BME280;11881;42.432;25.632;2023-11-21T06:25:14;99115.50;;;7.98;100.00
23417;BME280;11881;42.432;25.632;2023-11-21T06:27:47;99118.03;;;7.88;100.00
23417;BME280;11881;42.432;25.632;2023-11-21T06:30:13;99124.78;;;7.92;100.00
23417;BME280;11881;42.432;25.632;2023-11-21T06:32:40;99133.59;;;7.93;100.00
23417;BME280;11881;42.432;25.632;2023-11-21T06:35:07;99133.69;;;8.03;100.00
23417;BME280;11881;42.432;25.632;2023-11-21T06:37:35;99143.19;;;8.05;100.00
23417;BME280;11881;42.432;25.632;2023-11-21T06:40:01;99141.00;;;8.10;100.00
23417;BME280;11881;42.432;25.632;2023-11-21T06:42:29;99150.38;;;8.25;100.00
23417;BME280;11881;42.432;25.632;2023-11-21T06:44:54;99147.00;;;8.23;100.00
23417;BME280;11881;42.432;25.632;2023-11-21T06:47:23;99155.53;;;8.27;100.00
23417;BME280;11881;42.432;25.632;2023-11-21T06:49:53;99155.84;;;8.34;100.00
23417;BME280;11881;42.432;25.632;2023-11-21T06:52:19;99151.28;;;8.47;100.00
23417;BME280;11881;42.432;25.632;2023-11-21T06:54:44;99157.88;;;8.52;100.00
23417;BME280;11881;42.432;25.632;2023-11-21T06:57:11;99150.94;;;8.61;100.00
23417;BME280;11881;42.432;25.632;2023-11-21T06:59:36;99152.69;;;8.72;99.96
23417;BME280;11881;42.432;25.632;2023-11-21T07:02:02;99150.59;;;8.75;99.49
23417;BME280;11881;42.432;25.632;2023-11-21T07:04:27;99152.75;;;8.82;99.00
23417;BME280;11881;42.432;25.632;2023-11-21T07:06:54;99142.75;;;8.95;98.10
23417;BME280;11881;42.432;25.632;2023-11-21T07:09:20;99143.13;;;9.11;96.53
23417;BME280;11881;42.432;25.632;2023-11-21T07:11:49;99148.50;;;9.30;95.00
23417;BME280;11881;42.432;25.632;2023-11-21T07:14:15;99155.94;;;9.37;93.07
23417;BME280;11881;42.432;25.632;2023-11-21T07:16:42;99142.09;;;9.43;93.43
23417;BME280;11881;42.432;25.632;2023-11-21T07:19:08;99142.69;;;9.56;92.02
23417;BME280;11881;42.432;25.632;2023-11-21T07:21:36;99141.22;;;9.63;90.80
23417;BME280;11881;42.432;25.632;2023-11-21T07:24:03;99146.25;;;9.76;90.44
23417;BME280;11881;42.432;25.632;2023-11-21T07:26:32;99137.44;;;9.85;90.48
23417;BME280;11881;42.432;25.632;2023-11-21T07:29:04;99140.28;;;9.93;88.87
23417;BME280;11881;42.432;25.632;2023-11-21T07:31:29;99138.19;;;10.06;88.23
23417;BME280;11881;42.432;25.632;2023-11-21T07:33:55;99134.97;;;10.22;87.92
23417;BME280;11881;42.432;25.632;2023-11-21T07:36:24;99141.13;;;10.23;86.91
23417;BME280;11881;42.432;25.632;2023-11-21T07:38:50;99138.63;;;10.31;86.05
23417;BME280;11881;42.432;25.632;2023-11-21T07:41:17;99139.75;;;10.48;85.12
23417;BME280;11881;42.432;25.632;2023-11-21T07:43:46;99133.28;;;10.60;84.50
23417;BME280;11881;42.432;25.632;2023-11-21T07:46:12;99133.78;;;10.83;82.93
23417;BME280;11881;42.432;25.632;2023-11-21T07:48:39;99127.75;;;10.90;82.39
23417;BME280;11881;42.432;25.632;2023-11-21T07:51:04;99122.25;;;11.02;81.03
23417;BME280;11881;42.432;25.632;2023-11-21T07:53:30;99124.19;;;11.09;79.94
23417;BME280;11881;42.432;25.632;2023-11-21T07:56:14;99124.69;;;11.23;78.85
23417;BME280;11881;42.432;25.632;2023-11-21T07:58:39;99122.38;;;11.37;78.28
23417;BME280;11881;42.432;25.632;2023-11-21T08:01:05;99113.88;;;11.52;78.08
23417;BME280;11881;42.432;25.632;2023-11-21T08:03:30;99116.38;;;11.53;78.48
23417;BME280;11881;42.432;25.632;2023-11-21T08:05:57;99114.28;;;11.57;78.38
23417;BME280;11881;42.432;25.632;2023-11-21T08:08:23;99104.47;;;11.75;77.32
23417;BME280;11881;42.432;25.632;2023-11-21T08:10:49;99107.06;;;11.94;75.90
23417;BME280;11881;42.432;25.632;2023-11-21T08:13:30;99111.16;;;12.07;75.45
23417;BME280;11881;42.432;25.632;2023-11-21T08:15:58;99110.06;;;12.17;74.88
23417;BME280;11881;42.432;25.632;2023-11-21T08:18:28;99114.66;;;12.25;74.52
23417;BME280;11881;42.432;25.632;2023-11-21T08:20:55;99109.94;;;12.37;72.79
23417;BME280;11881;42.432;25.632;2023-11-21T08:23:21;99108.16;;;12.45;72.78
23417;BME280;11881;42.432;25.632;2023-11-21T08:25:50;99105.59;;;12.62;71.07
23417;BME280;11881;42.432;25.632;2023-11-21T08:28:16;99105.34;;;12.73;71.39
23417;BME280;11881;42.432;25.632;2023-11-21T08:30:42;99101.16;;;12.70;71.85
23417;BME280;11881;42.432;25.632;2023-11-21T08:33:07;99106.50;;;12.70;71.86
23417;BME280;11881;42.432;25.632;2023-11-21T08:35:34;99100.53;;;12.76;72.54
23417;BME280;11881;42.432;25.632;2023-11-21T08:37:59;99092.59;;;12.93;70.90
23417;BME280;11881;42.432;25.632;2023-11-21T08:40:25;99093.22;;;13.13;70.75
23417;BME280;11881;42.432;25.632;2023-11-21T08:42:50;99093.00;;;13.32;68.01
23417;BME280;11881;42.432;25.632;2023-11-21T08:45:18;99085.03;;;13.40;67.44
23417;BME280;11881;42.432;25.632;2023-11-21T08:47:43;99090.38;;;13.48;66.78
23417;BME280;11881;42.432;25.632;2023-11-21T08:50:12;99078.38;;;13.61;66.20
23417;BME280;11881;42.432;25.632;2023-11-21T08:52:41;99081.22;;;13.67;66.31
23417;BME280;11881;42.432;25.632;2023-11-21T08:55:08;99068.72;;;13.84;64.15
23417;BME280;11881;42.432;25.632;2023-11-21T08:57:37;99069.38;;;13.78;63.08
23417;BME280;11881;42.432;25.632;2023-11-21T09:00:04;99066.56;;;13.96;63.75
23417;BME280;11881;42.432;25.632;2023-11-21T09:02:33;99061.56;;;14.17;62.51
23417;BME280;11881;42.432;25.632;2023-11-21T09:04:59;99060.03;;;14.15;61.98
23417;BME280;11881;42.432;25.632;2023-11-21T09:07:28;99058.56;;;14.28;61.02
23417;BME280;11881;42.432;25.632;2023-11-21T09:09:54;99045.50;;;14.50;60.14
23417;BME280;11881;42.432;25.632;2023-11-21T09:12:20;99049.19;;;14.57;60.12
23417;BME280;11881;42.432;25.632;2023-11-21T09:14:46;99037.09;;;14.69;59.91
23417;BME280;11881;42.432;25.632;2023-11-21T09:17:11;99034.38;;;14.77;59.52
23417;BME280;11881;42.432;25.632;2023-11-21T09:19:40;99034.03;;;14.72;59.94
23417;BME280;11881;42.432;25.632;2023-11-21T09:22:06;99036.22;;;14.77;59.08
23417;BME280;11881;42.432;25.632;2023-11-21T09:24:32;99031.34;;;14.80;59.95
23417;BME280;11881;42.432;25.632;2023-11-21T09:26:58;99027.47;;;14.91;60.13
23417;BME280;11881;42.432;25.632;2023-11-21T09:29:28;99019.47;;;14.75;59.60
23417;BME280;11881;42.432;25.632;2023-11-21T09:31:54;99015.09;;;14.82;59.25
23417;BME280;11881;42.432;25.632;2023-11-21T09:34:21;99010.91;;;14.79;59.67
23417;BME280;11881;42.432;25.632;2023-11-21T09:36:47;99012.59;;;14.80;59.77
23417;BME280;11881;42.432;25.632;2023-11-21T09:39:13;99009.25;;;14.70;59.48
23417;BME280;11881;42.432;25.632;2023-11-21T09:42:15;98998.03;;;14.67;59.07
23417;BME280;11881;42.432;25.632;2023-11-21T09:44:51;99000.53;;;14.76;60.87
23417;BME280;11881;42.432;25.632;2023-11-21T09:47:22;98996.78;;;14.94;59.86
23417;BME280;11881;42.432;25.632;2023-11-21T09:49:48;98993.31;;;14.85;59.33
23417;BME280;11881;42.432;25.632;2023-11-21T09:52:26;98991.59;;;14.92;61.28
23417;BME280;11881;42.432;25.632;2023-11-21T09:54:53;98985.06;;;14.86;61.56
23417;BME280;11881;42.432;25.632;2023-11-21T09:57:23;98983.53;;;14.92;61.08
23417;BME280;11881;42.432;25.632;2023-11-21T09:59:52;98981.88;;;14.91;60.50
23417;BME280;11881;42.432;25.632;2023-11-21T10:02:28;98977.50;;;14.90;60.77
23417;BME280;11881;42.432;25.632;2023-11-21T10:04:59;98978.13;;;15.08;61.71
23417;BME280;11881;42.432;25.632;2023-11-21T10:07:26;98967.38;;;15.08;61.79
23417;BME280;11881;42.432;25.632;2023-11-21T10:09:52;98969.56;;;15.05;64.79
23417;BME280;11881;42.432;25.632;2023-11-21T10:12:19;98968.47;;;14.91;65.06
23417;BME280;11881;42.432;25.632;2023-11-21T10:14:48;98961.63;;;14.80;66.39
23417;BME280;11881;42.432;25.632;2023-11-21T10:17:14;98960.56;;;14.89;65.97
23417;BME280;11881;42.432;25.632;2023-11-21T10:19:46;98961.41;;;14.90;66.14
23417;BME280;11881;42.432;25.632;2023-11-21T10:22:12;98957.28;;;14.79;66.39
23417;BME280;11881;42.432;25.632;2023-11-21T10:24:40;98949.38;;;14.78;67.34
23417;BME280;11881;42.432;25.632;2023-11-21T10:27:05;98943.25;;;15.00;67.10
23417;BME280;11881;42.432;25.632;2023-11-21T10:29:31;98944.84;;;14.86;66.97
23417;BME280;11881;42.432;25.632;2023-11-21T10:32:02;98950.53;;;14.92;67.99
23417;BME280;11881;42.432;25.632;2023-11-21T10:34:27;98947.13;;;14.98;67.88
23417;BME280;11881;42.432;25.632;2023-11-21T10:36:53;98942.94;;;14.95;68.82
23417;BME280;11881;42.432;25.632;2023-11-21T10:39:21;98939.28;;;14.88;68.66
23417;BME280;11881;42.432;25.632;2023-11-21T10:41:49;98932.59;;;14.84;68.18
23417;BME280;11881;42.432;25.632;2023-11-21T10:44:15;98932.97;;;14.81;70.37
23417;BME280;11881;42.432;25.632;2023-11-21T10:46:53;98931.63;;;14.77;69.78
23417;BME280;11881;42.432;25.632;2023-11-21T10:49:26;98929.19;;;14.67;71.67
23417;BME280;11881;42.432;25.632;2023-11-21T10:51:53;98918.84;;;14.56;71.79
23417;BME280;11881;42.432;25.632;2023-11-21T10:54:24;98918.00;;;14.55;71.76
23417;BME280;11881;42.432;25.632;2023-11-21T10:56:53;98919.00;;;14.46;71.94
23417;BME280;11881;42.432;25.632;2023-11-21T10:59:22;98919.03;;;14.30;72.46
23417;BME280;11881;42.432;25.632;2023-11-21T11:01:50;98913.19;;;14.26;73.06
23417;BME280;11881;42.432;25.632;2023-11-21T11:04:18;98909.16;;;14.30;74.73
23417;BME280;11881;42.432;25.632;2023-11-21T11:07:05;98903.78;;;14.30;73.75
23417;BME280;11881;42.432;25.632;2023-11-21T11:09:31;98907.16;;;14.32;72.57
23417;BME280;11881;42.432;25.632;2023-11-21T11:11:58;98899.63;;;14.20;72.91
23417;BME280;11881;42.432;25.632;2023-11-21T11:14:25;98898.78;;;14.19;74.59
23417;BME280;11881;42.432;25.632;2023-11-21T11:16:54;98889.22;;;14.25;74.58
23417;BME280;11881;42.432;25.632;2023-11-21T11:19:24;98887.56;;;14.24;75.69
23417;BME280;11881;42.432;25.632;2023-11-21T11:24:49;98877.34;;;14.27;74.75
23417;BME280;11881;42.432;25.632;2023-11-21T11:27:33;98883.88;;;14.33;74.79
23417;BME280;11881;42.432;25.632;2023-11-21T11:30:09;98874.09;;;14.48;75.11
23417;BME280;11881;42.432;25.632;2023-11-21T11:35:30;98864.56;;;14.37;74.81
23417;BME280;11881;42.432;25.632;2023-11-21T11:37:59;98867.78;;;14.33;75.35
23417;BME280;11881;42.432;25.632;2023-11-21T11:40:38;98857.78;;;14.19;75.82
23417;BME280;11881;42.432;25.632;2023-11-21T11:43:06;98857.31;;;14.15;76.82
23417;BME280;11881;42.432;25.632;2023-11-21T11:45:33;98858.63;;;14.11;77.99
23417;BME280;11881;42.432;25.632;2023-11-21T11:48:02;98847.75;;;14.13;80.23
23417;BME280;11881;42.432;25.632;2023-11-21T11:50:29;98848.56;;;14.13;81.93
23417;BME280;11881;42.432;25.632;2023-11-21T11:52:55;98843.72;;;14.17;83.18
23417;BME280;11881;42.432;25.632;2023-11-21T11:55:36;98844.03;;;14.22;80.85
23417;BME280;11881;42.432;25.632;2023-11-21T11:58:05;98832.31;;;14.23;79.67
23417;BME280;11881;42.432;25.632;2023-11-21T12:03:02;98838.19;;;14.18;79.46
23417;BME280;11881;42.432;25.632;2023-11-21T12:05:29;98824.97;;;14.17;80.31
23417;BME280;11881;42.432;25.632;2023-11-21T12:08:02;98822.28;;;14.17;80.29
23417;BME280;11881;42.432;25.632;2023-11-21T12:10:33;98824.84;;;14.10;81.45
23417;BME280;11881;42.432;25.632;2023-11-21T12:13:09;98825.31;;;14.14;81.78
23417;BME280;11881;42.432;25.632;2023-11-21T12:15:37;98815.41;;;14.14;82.86
23417;BME280;11881;42.432;25.632;2023-11-21T12:18:04;98815.28;;;14.16;82.18
23417;BME280;11881;42.432;25.632;2023-11-21T12:20:31;98822.63;;;14.14;82.35
23417;BME280;11881;42.432;25.632;2023-11-21T12:22:59;98813.06;;;14.19;83.93
23417;BME280;11881;42.432;25.632;2023-11-21T12:25:29;98794.31;;;14.19;85.32
23417;BME280;11881;42.432;25.632;2023-11-21T12:27:57;98792.97;;;14.23;86.24
23417;BME280;11881;42.432;25.632;2023-11-21T12:30:25;98785.56;;;14.25;84.93
23417;BME280;11881;42.432;25.632;2023-11-21T12:32:54;98786.72;;;14.31;84.86
23417;BME280;11881;42.432;25.632;2023-11-21T12:35:22;98775.34;;;14.29;83.67
23417;BME280;11881;42.432;25.632;2023-11-21T12:37:51;98766.66;;;14.27;84.84
23417;BME280;11881;42.432;25.632;2023-11-21T12:40:17;98759.59;;;14.26;85.40
23417;BME280;11881;42.432;25.632;2023-11-21T12:42:47;98757.59;;;14.28;85.77
23417;BME280;11881;42.432;25.632;2023-11-21T12:47:46;98766.34;;;14.22;85.98
23417;BME280;11881;42.432;25.632;2023-11-21T12:50:12;98766.34;;;14.22;86.44
23417;BME280;11881;42.432;25.632;2023-11-21T12:52:42;98771.47;;;14.31;86.58
23417;BME280;11881;42.432;25.632;2023-11-21T12:55:15;98768.63;;;14.33;85.45
23417;BME280;11881;42.432;25.632;2023-11-21T12:57:52;98769.47;;;14.33;86.59
23417;BME280;11881;42.432;25.632;2023-11-21T13:00:20;98771.84;;;14.28;87.45